createdAt,value
2022-09-03T00:00:09.169Z,1.58
2022-09-03T00:02:43.955Z,2.25
2022-09-03T00:05:16.970Z,2.20
2022-09-03T00:07:53.117Z,2.63
2022-09-03T00:10:25.809Z,3.00
2022-09-03T00:12:57.256Z,2.15
2022-09-03T00:15:27.231Z,2.88
2022-09-03T00:17:58.479Z,2.38
2022-09-03T00:20:30.992Z,2.60
2022-09-03T00:23:04.418Z,2.00
2022-09-03T00:25:37.701Z,2.33
2022-09-03T00:28:09.127Z,2.05
2022-09-03T00:30:38.734Z,2.33
2022-09-03T00:33:10.993Z,1.90
2022-09-03T00:35:44.083Z,1.92
2022-09-03T00:38:16.285Z,1.83
2022-09-03T00:40:54.877Z,2.50
2022-09-03T00:43:32.806Z,2.65
2022-09-03T00:46:07.473Z,2.22
2022-09-03T00:48:39.884Z,2.50
2022-09-03T00:51:13.535Z,2.80
2022-09-03T00:53:51.451Z,2.28
2022-09-03T00:56:26.104Z,2.20
2022-09-03T00:59:04.641Z,2.28
2022-09-03T01:01:39.281Z,2.17
2022-09-03T01:04:15.549Z,2.10
2022-09-03T01:06:50.447Z,2.15
2022-09-03T01:09:26.930Z,2.47
2022-09-03T01:12:00.428Z,2.00
2022-09-03T01:14:36.394Z,2.80
2022-09-03T01:17:11.265Z,2.95
2022-09-03T01:19:55.006Z,2.70
2022-09-03T01:22:44.694Z,2.97
2022-09-03T01:25:28.244Z,2.33
2022-09-03T01:28:09.419Z,2.90
2022-09-03T01:30:41.496Z,2.47
2022-09-03T01:33:14.951Z,2.20
2022-09-03T01:35:47.444Z,2.80
2022-09-03T01:38:23.895Z,2.33
2022-09-03T01:40:56.569Z,2.20
2022-09-03T01:43:45.711Z,2.90
2022-09-03T01:46:17.346Z,2.67
2022-09-03T01:48:49.216Z,2.55
2022-09-03T01:51:23.247Z,2.50
2022-09-03T01:54:07.826Z,2.55
2022-09-03T01:56:46.369Z,2.55
2022-09-03T01:59:23.556Z,2.33
2022-09-03T02:01:57.031Z,2.60
2022-09-03T02:04:28.833Z,2.33
2022-09-03T02:07:00.570Z,2.60
2022-09-03T02:09:32.764Z,2.00
2022-09-03T02:12:05.067Z,2.50
2022-09-03T02:14:38.156Z,2.00
2022-09-03T02:17:08.367Z,2.20
2022-09-03T02:19:38.128Z,2.40
2022-09-03T02:22:08.131Z,1.88
2022-09-03T02:24:37.719Z,2.20
2022-09-03T02:27:07.546Z,2.15
2022-09-03T02:29:39.858Z,2.25
2022-09-03T02:32:09.505Z,2.67
2022-09-03T02:34:39.085Z,2.33
2022-09-03T02:37:15.208Z,2.28
2022-09-03T02:39:45.115Z,1.95
2022-09-03T02:42:16.015Z,2.00
2022-09-03T02:44:51.208Z,2.08
2022-09-03T02:47:20.999Z,2.20
2022-09-03T02:49:50.635Z,1.88
2022-09-03T02:52:20.237Z,2.08
2022-09-03T02:54:49.804Z,2.03
2022-09-03T02:57:27.488Z,2.10
2022-09-03T03:00:00.149Z,2.33
2022-09-03T03:02:29.825Z,2.10
2022-09-03T03:04:59.461Z,1.88
2022-09-03T03:07:29.436Z,1.75
2022-09-03T03:09:59.204Z,1.85
2022-09-03T03:12:29.102Z,1.95
2022-09-03T03:15:01.321Z,2.20
2022-09-03T03:17:31.878Z,2.13
2022-09-03T03:20:01.508Z,1.95
2022-09-03T03:22:31.123Z,1.83
2022-09-03T03:25:01.467Z,1.98
2022-09-03T03:27:31.075Z,2.20
2022-09-03T03:30:03.304Z,1.88
2022-09-03T03:32:32.874Z,1.92
2022-09-03T03:35:02.440Z,1.88
2022-09-03T03:37:32.183Z,2.40
2022-09-03T03:40:01.820Z,1.77
2022-09-03T03:42:31.512Z,1.75
2022-09-03T03:45:04.567Z,1.80
2022-09-03T03:47:34.691Z,1.92
2022-09-03T03:50:04.332Z,2.47
2022-09-03T03:52:33.978Z,2.05
2022-09-03T03:55:03.592Z,1.92
2022-09-03T03:57:33.932Z,2.40
2022-09-03T04:00:06.806Z,2.22
2022-09-03T04:02:44.012Z,2.72
2022-09-03T04:05:13.758Z,2.20
2022-09-03T04:07:44.486Z,1.75
2022-09-03T04:10:15.679Z,2.45
2022-09-03T04:12:45.293Z,2.10
2022-09-03T04:15:17.593Z,2.03
2022-09-03T04:17:47.205Z,2.03
2022-09-03T04:20:16.832Z,3.03
2022-09-03T04:22:49.103Z,2.72
2022-09-03T04:25:21.455Z,2.28
2022-09-03T04:27:51.248Z,2.20
2022-09-03T04:30:23.585Z,2.45
2022-09-03T04:32:56.370Z,2.13
2022-09-03T04:35:29.325Z,2.17
2022-09-03T04:37:58.926Z,2.10
2022-09-03T04:40:28.816Z,1.90
2022-09-03T04:43:00.312Z,2.08
2022-09-03T04:45:32.555Z,2.65
2022-09-03T04:48:02.641Z,1.98
2022-09-03T04:50:33.102Z,2.10
2022-09-03T04:53:07.237Z,2.13
2022-09-03T04:55:37.967Z,2.22
2022-09-03T04:58:07.898Z,2.63
2022-09-03T05:00:40.484Z,2.75
2022-09-03T05:03:10.133Z,2.55
2022-09-03T05:05:39.696Z,2.92
2022-09-03T05:08:09.332Z,2.70
2022-09-03T05:10:38.959Z,2.92
2022-09-03T05:13:08.690Z,3.00
2022-09-03T05:15:41.959Z,2.40
2022-09-03T05:18:11.812Z,2.58
2022-09-03T05:20:41.383Z,2.33
2022-09-03T05:23:11.003Z,2.28
2022-09-03T05:25:41.041Z,2.78
2022-09-03T05:28:11.222Z,2.85
2022-09-03T05:30:43.828Z,2.42
2022-09-03T05:33:15.525Z,2.40
2022-09-03T05:35:45.135Z,2.78
2022-09-03T05:38:15.993Z,2.92
2022-09-03T05:40:45.762Z,3.30
2022-09-03T05:43:16.595Z,3.33
2022-09-03T05:45:49.244Z,3.28
2022-09-03T05:48:19.190Z,3.25
2022-09-03T05:50:49.890Z,3.15
2022-09-03T05:53:19.750Z,3.53
2022-09-03T05:55:57.619Z,3.10
2022-09-03T05:58:27.293Z,3.83
2022-09-03T06:00:59.511Z,3.55
2022-09-03T06:03:29.564Z,2.78
2022-09-03T06:05:59.553Z,3.00
2022-09-03T06:08:29.180Z,2.80
2022-09-03T06:11:00.600Z,2.95
2022-09-03T06:13:30.410Z,3.15
2022-09-03T06:16:03.048Z,3.13
2022-09-03T06:18:32.915Z,2.78
2022-09-03T06:21:03.258Z,2.85
2022-09-03T06:23:34.000Z,2.88
2022-09-03T06:26:07.120Z,3.05
2022-09-03T06:28:38.168Z,3.10
2022-09-03T06:31:11.769Z,2.95
2022-09-03T06:33:42.656Z,4.18
2022-09-03T06:36:13.500Z,4.07
2022-09-03T06:38:43.615Z,3.53
2022-09-03T06:41:14.192Z,3.97
2022-09-03T06:43:46.421Z,4.00
2022-09-03T06:46:19.380Z,3.58
2022-09-03T06:48:51.178Z,3.28
2022-09-03T06:51:21.653Z,3.97
2022-09-03T06:53:52.166Z,3.40
2022-09-03T06:56:27.169Z,3.10
2022-09-03T06:58:57.404Z,3.17
2022-09-03T07:01:31.396Z,2.90
2022-09-03T07:04:02.759Z,3.40
2022-09-03T07:06:33.644Z,3.50
2022-09-03T07:09:03.297Z,3.10
2022-09-03T07:11:35.933Z,2.85
2022-09-03T07:14:06.801Z,2.95
2022-09-03T07:16:39.502Z,3.30
2022-09-03T07:19:09.400Z,3.30
2022-09-03T07:21:46.471Z,3.42
2022-09-03T07:24:19.058Z,2.85
2022-09-03T07:26:49.703Z,2.75
2022-09-03T07:29:20.896Z,2.83
2022-09-03T07:31:54.570Z,3.67
2022-09-03T07:34:27.257Z,3.20
2022-09-03T07:36:57.031Z,2.90
2022-09-03T07:39:26.866Z,3.45
2022-09-03T07:41:59.762Z,3.10
2022-09-03T07:44:29.730Z,2.90
2022-09-03T07:47:01.993Z,3.05
2022-09-03T07:49:31.618Z,5.63
2022-09-03T07:52:01.437Z,2.85
2022-09-03T07:54:31.640Z,3.00
2022-09-03T07:57:02.321Z,2.83
2022-09-03T07:59:31.945Z,4.47
2022-09-03T08:02:06.209Z,2.85
2022-09-03T08:04:36.483Z,5.05
2022-09-03T08:07:06.101Z,2.60
2022-09-03T08:09:35.868Z,4.10
2022-09-03T08:12:05.866Z,3.03
2022-09-03T08:14:35.566Z,3.03
2022-09-03T08:17:08.140Z,2.63
2022-09-03T08:19:37.955Z,4.13
2022-09-03T08:22:07.650Z,4.43
2022-09-03T08:24:37.323Z,2.80
2022-09-03T08:27:07.316Z,3.55
2022-09-03T08:29:37.007Z,2.95
2022-09-03T08:32:09.685Z,2.85
2022-09-03T08:34:39.314Z,4.00
2022-09-03T08:37:10.100Z,3.03
2022-09-03T08:39:39.737Z,3.33
2022-09-03T08:42:19.591Z,3.00
2022-09-03T08:44:50.721Z,2.95
2022-09-03T08:47:24.825Z,3.65
2022-09-03T08:49:58.255Z,2.47
2022-09-03T08:52:40.236Z,2.88
2022-09-03T08:55:27.784Z,3.35
2022-09-03T08:58:00.497Z,3.05
2022-09-03T09:00:32.735Z,3.20
2022-09-03T09:03:10.965Z,3.00
2022-09-03T09:05:45.313Z,2.70
2022-09-03T09:08:19.467Z,2.90
2022-09-03T09:10:50.205Z,2.17
2022-09-03T09:13:25.552Z,2.70
2022-09-03T09:16:00.211Z,2.40
2022-09-03T09:18:41.209Z,2.70
2022-09-03T09:21:17.703Z,2.50
2022-09-03T09:23:51.014Z,2.67
2022-09-03T09:26:21.609Z,2.50
2022-09-03T09:28:57.268Z,2.47
2022-09-03T09:31:27.186Z,2.75
2022-09-03T09:34:03.296Z,3.00
2022-09-03T09:36:33.499Z,2.90
2022-09-03T09:39:11.179Z,2.38
2022-09-03T09:41:40.801Z,3.10
2022-09-03T09:44:10.532Z,2.67
2022-09-03T09:46:46.206Z,2.30
2022-09-03T09:49:28.830Z,2.40
2022-09-03T09:52:03.523Z,2.83
2022-09-03T09:54:33.097Z,3.25
2022-09-03T09:57:03.862Z,2.53
2022-09-03T09:59:34.048Z,2.60
2022-09-03T10:02:22.478Z,2.47
2022-09-03T10:04:54.928Z,3.08
2022-09-03T10:07:30.392Z,2.00
2022-09-03T10:10:04.194Z,2.00
2022-09-03T10:12:36.533Z,2.03
2022-09-03T10:15:10.561Z,2.30
2022-09-03T10:17:45.626Z,2.40
2022-09-03T10:20:31.411Z,2.70
2022-09-03T10:23:03.599Z,2.53
2022-09-03T10:25:39.429Z,4.63
2022-09-03T10:28:12.393Z,2.20
2022-09-03T10:30:49.159Z,2.95
2022-09-03T10:33:22.032Z,2.08
2022-09-03T10:35:56.549Z,2.40
2022-09-03T10:38:30.315Z,2.10
2022-09-03T10:41:06.824Z,2.95
2022-09-03T10:43:48.838Z,3.22
2022-09-03T10:46:23.875Z,2.30
2022-09-03T10:49:01.472Z,2.75
2022-09-03T10:51:36.650Z,2.70
2022-09-03T10:54:18.923Z,2.45
2022-09-03T10:56:54.993Z,1.77
2022-09-03T10:59:35.748Z,2.70
2022-09-03T11:02:18.500Z,2.50
2022-09-03T11:04:52.173Z,2.40
2022-09-03T11:07:28.945Z,2.78
2022-09-03T11:10:01.253Z,2.63
2022-09-03T11:12:34.164Z,2.53
2022-09-03T11:15:07.491Z,2.30
2022-09-03T11:17:40.467Z,2.55
2022-09-03T11:20:14.744Z,2.45
2022-09-03T11:22:47.902Z,2.60
2022-09-03T11:25:19.153Z,2.45
2022-09-03T11:27:56.827Z,2.67
2022-09-03T11:30:28.370Z,2.20
2022-09-03T11:33:00.016Z,3.38
2022-09-03T11:35:31.425Z,3.13
2022-09-03T11:38:06.128Z,2.50
2022-09-03T11:40:36.472Z,2.67
2022-09-03T11:43:12.959Z,3.03
2022-09-03T11:45:43.384Z,2.17
2022-09-03T11:48:39.617Z,4.72
2022-09-03T11:51:20.911Z,1.60
2022-09-03T11:54:00.304Z,2.38
2022-09-03T11:56:29.926Z,2.83
2022-09-03T11:59:04.160Z,2.40
2022-09-03T12:01:35.505Z,3.17
2022-09-03T12:04:06.321Z,3.00
2022-09-03T12:06:50.976Z,3.03
2022-09-03T12:09:32.298Z,2.90
2022-09-03T12:12:07.331Z,2.20
2022-09-03T12:14:42.973Z,2.58
2022-09-03T12:17:18.992Z,2.63
2022-09-03T12:19:50.797Z,2.70
2022-09-03T12:22:21.259Z,2.63
2022-09-03T12:24:53.793Z,2.67
2022-09-03T12:27:24.988Z,2.88
2022-09-03T12:30:00.259Z,2.10
2022-09-03T12:32:32.578Z,2.33
2022-09-03T12:35:13.275Z,3.75
2022-09-03T12:43:39.228Z,10.13
2022-09-03T12:46:17.765Z,22.52
2022-09-03T12:49:29.948Z,19.05
2022-09-03T12:51:52.072Z,15.05
2022-09-03T12:54:23.998Z,69.57
2022-09-03T12:56:59.539Z,62.65
2022-09-03T12:59:30.977Z,3.53
2022-09-03T13:02:03.732Z,4.38
2022-09-03T13:04:35.328Z,19.00
2022-09-03T13:07:06.782Z,2.67
2022-09-03T13:09:37.928Z,7.00
2022-09-03T13:12:10.494Z,8.45
2022-09-03T13:14:47.420Z,17.33
2022-09-03T13:17:35.590Z,19.92
2022-09-03T13:20:29.469Z,13.02
2022-09-03T13:23:05.123Z,11.35
2022-09-03T13:25:38.136Z,14.05
2022-09-03T13:28:14.891Z,3.30
2022-09-03T13:30:50.578Z,4.35
2022-09-03T13:33:23.448Z,3.95
2022-09-03T13:36:03.599Z,3.80
2022-09-03T13:38:37.480Z,2.42
2022-09-03T13:41:20.050Z,8.10
2022-09-03T13:43:55.795Z,3.08
2022-09-03T13:46:27.562Z,6.80
2022-09-03T13:49:12.989Z,3.00
2022-09-03T13:51:47.210Z,5.10
2022-09-03T13:54:36.240Z,2.38
2022-09-03T13:57:07.670Z,4.65
2022-09-03T13:59:46.532Z,8.38
2022-09-03T14:02:23.516Z,5.22
2022-09-03T14:05:04.280Z,14.20
2022-09-03T14:07:44.945Z,3.85
2022-09-03T14:10:21.995Z,3.83
2022-09-03T14:12:53.837Z,4.30
2022-09-03T14:15:29.731Z,3.17
2022-09-03T14:18:02.582Z,2.65
2022-09-03T14:20:33.041Z,10.85
2022-09-03T14:23:06.499Z,9.68
2022-09-03T14:25:36.149Z,15.52
2022-09-03T14:28:22.580Z,2.40
2022-09-03T14:30:58.625Z,5.15
2022-09-03T14:33:31.518Z,5.50
2022-09-03T14:36:06.258Z,9.80
2022-09-03T14:38:43.193Z,8.35
2022-09-03T14:41:25.728Z,7.25
2022-09-03T14:44:09.646Z,6.07
2022-09-03T14:46:51.726Z,7.32
2022-09-03T14:49:39.226Z,3.40
2022-09-03T14:52:14.564Z,2.80
2022-09-03T14:54:52.953Z,2.90
2022-09-03T14:57:31.790Z,9.98
2022-09-03T15:00:12.092Z,9.95
2022-09-03T15:02:56.844Z,5.32
2022-09-03T15:05:33.978Z,7.82
2022-09-03T15:08:05.003Z,12.82
2022-09-03T15:10:36.824Z,8.68
2022-09-03T15:13:12.700Z,5.68
2022-09-03T15:15:54.003Z,10.77
2022-09-03T15:18:30.041Z,11.88
2022-09-03T15:21:04.233Z,10.00
2022-09-03T15:23:52.168Z,7.45
2022-09-03T15:26:35.196Z,11.30
2022-09-03T15:29:11.934Z,14.40
2022-09-03T15:31:47.968Z,9.25
2022-09-03T15:34:29.118Z,5.95
2022-09-03T15:37:03.988Z,5.05
2022-09-03T15:39:38.154Z,9.90
2022-09-03T15:42:10.423Z,4.32
2022-09-03T15:44:46.964Z,7.32
2022-09-03T15:47:51.081Z,11.23
2022-09-03T15:50:28.656Z,5.57
2022-09-03T15:53:01.273Z,3.95
2022-09-03T15:55:35.273Z,4.03
2022-09-03T15:58:11.168Z,4.20
2022-09-03T16:01:00.169Z,6.13
2022-09-03T16:03:46.416Z,4.82
2022-09-03T16:06:28.239Z,8.00
2022-09-03T16:08:59.253Z,7.68
2022-09-03T16:11:36.056Z,10.05
2022-09-03T16:14:09.276Z,4.50
2022-09-03T16:16:48.271Z,4.38
2022-09-03T16:21:53.726Z,8.07
2022-09-03T16:24:26.110Z,11.20
2022-09-03T16:26:59.041Z,7.60
2022-09-03T16:29:31.038Z,6.25
2022-09-03T16:32:06.277Z,5.35
2022-09-03T16:34:41.549Z,7.13
2022-09-03T16:37:21.753Z,6.20
2022-09-03T16:39:56.041Z,7.40
2022-09-03T16:42:30.097Z,6.70
2022-09-03T16:45:06.762Z,6.32
2022-09-03T16:47:42.429Z,6.82
2022-09-03T16:50:18.460Z,5.10
2022-09-03T16:52:57.867Z,5.07
2022-09-03T16:55:31.459Z,6.82
2022-09-03T16:58:08.314Z,5.55
2022-09-03T17:00:50.421Z,5.75
2022-09-03T17:03:41.868Z,5.93
2022-09-03T17:06:31.289Z,4.15
2022-09-03T17:09:10.866Z,4.20
2022-09-03T17:11:48.048Z,5.20
2022-09-03T17:14:27.310Z,4.70
2022-09-03T17:17:02.031Z,5.43
2022-09-03T17:19:35.271Z,4.78
2022-09-03T17:22:11.679Z,5.68
2022-09-03T17:24:51.916Z,4.22
2022-09-03T17:27:36.661Z,5.18
2022-09-03T17:30:10.168Z,5.45
2022-09-03T17:32:49.504Z,4.13
2022-09-03T17:35:37.764Z,4.70
2022-09-03T17:38:16.920Z,5.30
2022-09-03T17:40:52.126Z,6.10
2022-09-03T17:43:24.057Z,4.97
2022-09-03T17:45:57.707Z,7.00
2022-09-03T17:48:33.590Z,5.03
2022-09-03T17:51:07.533Z,5.80
2022-09-03T17:53:41.414Z,5.32
2022-09-03T17:56:21.433Z,4.28
2022-09-03T17:58:54.622Z,4.93
2022-09-03T18:01:27.367Z,5.07
2022-09-03T18:04:03.293Z,5.22
2022-09-03T18:06:37.818Z,5.43
2022-09-03T18:09:09.588Z,6.35
2022-09-03T18:11:44.250Z,6.93
2022-09-03T18:14:18.511Z,6.72
2022-09-03T18:16:51.216Z,5.78
2022-09-03T18:19:29.396Z,10.00
2022-09-03T18:22:13.064Z,15.88
2022-09-03T18:24:56.930Z,11.77
2022-09-03T18:27:43.865Z,8.70
2022-09-03T18:30:27.176Z,8.40
2022-09-03T18:33:09.307Z,6.40
2022-09-03T18:35:51.457Z,6.35
2022-09-03T18:38:37.350Z,8.57
2022-09-03T18:41:21.920Z,6.40
2022-09-03T18:44:10.665Z,6.53
2022-09-03T18:50:04.054Z,6.22
2022-09-03T18:52:50.354Z,6.82
2022-09-03T18:55:35.682Z,6.53
2022-09-03T18:58:22.756Z,7.60
2022-09-03T19:01:12.944Z,6.70
2022-09-03T19:03:59.895Z,5.93
2022-09-03T19:06:47.167Z,5.45
2022-09-03T19:09:33.183Z,6.00
2022-09-03T19:12:22.024Z,6.82
2022-09-03T19:15:07.890Z,5.10
2022-09-03T19:18:00.532Z,7.55
2022-09-03T19:20:44.145Z,6.40
2022-09-03T19:23:26.267Z,5.40
2022-09-03T19:26:09.561Z,4.65
2022-09-03T19:28:56.123Z,5.40
2022-09-03T19:31:48.744Z,4.63
2022-09-03T19:34:50.453Z,5.00
2022-09-03T19:37:34.224Z,5.10
2022-09-03T19:40:21.223Z,5.20
2022-09-03T19:43:07.392Z,10.75
2022-09-03T19:45:54.072Z,7.72
2022-09-03T19:48:44.538Z,5.65
2022-09-03T19:51:31.370Z,6.45
2022-09-03T19:54:13.830Z,6.13
2022-09-03T19:56:56.813Z,5.30
2022-09-03T19:59:41.038Z,5.05
2022-09-03T20:02:23.684Z,5.07
2022-09-03T20:05:07.357Z,5.00
2022-09-03T20:07:52.413Z,5.45
2022-09-03T20:10:25.258Z,9.07
2022-09-03T20:12:58.898Z,7.97
2022-09-03T20:15:33.503Z,7.63
2022-09-03T20:18:07.365Z,6.95
2022-09-03T20:20:44.282Z,7.45
2022-09-03T20:23:21.323Z,7.47
2022-09-03T20:25:56.592Z,7.65
2022-09-03T20:28:33.105Z,7.57
2022-09-03T20:31:05.111Z,8.70
2022-09-03T20:33:42.037Z,6.78
2022-09-03T20:36:16.561Z,6.80
2022-09-03T20:39:10.124Z,5.85
2022-09-03T20:41:49.976Z,6.28
2022-09-03T20:44:37.337Z,5.97
2022-09-03T20:47:11.747Z,7.05
2022-09-03T20:49:44.033Z,8.52
2022-09-03T20:52:15.635Z,7.82
2022-09-03T20:54:50.566Z,7.97
2022-09-03T20:57:27.663Z,8.07
2022-09-03T21:00:05.129Z,7.28
2022-09-03T21:02:40.397Z,7.13
2022-09-03T21:05:17.062Z,6.88
2022-09-03T21:07:51.951Z,6.65
2022-09-03T21:10:25.530Z,6.53
2022-09-03T21:13:02.785Z,6.75
2022-09-03T21:15:36.918Z,6.43
2022-09-03T21:18:09.550Z,5.55
2022-09-03T21:20:45.514Z,4.95
2022-09-03T21:23:19.483Z,4.90
2022-09-03T21:25:52.170Z,5.60
2022-09-03T21:28:27.048Z,5.88
2022-09-03T21:30:59.463Z,5.60
2022-09-03T21:33:31.065Z,5.38
2022-09-03T21:36:06.791Z,5.25
2022-09-03T21:38:37.432Z,5.10
2022-09-03T21:41:14.704Z,5.38
2022-09-03T21:43:50.076Z,5.72
2022-09-03T21:46:21.886Z,5.85
2022-09-03T21:48:54.988Z,6.25
2022-09-03T21:51:27.215Z,6.57
2022-09-03T21:53:59.389Z,7.22
2022-09-03T21:56:38.222Z,6.22
2022-09-03T21:59:14.409Z,6.28
2022-09-03T22:01:49.675Z,5.22
2022-09-03T22:04:19.320Z,6.18
2022-09-03T22:06:54.677Z,5.38
2022-09-03T22:09:27.890Z,5.50
2022-09-03T22:12:01.411Z,5.45
2022-09-03T22:14:36.576Z,6.43
2022-09-03T22:17:10.947Z,6.85
2022-09-03T22:19:40.581Z,10.18
2022-09-03T22:22:12.951Z,9.85
2022-09-03T22:24:45.363Z,6.57
2022-09-03T22:27:19.412Z,10.18
2022-09-03T22:29:56.020Z,10.52
2022-09-03T22:32:35.753Z,7.80
2022-09-03T22:35:13.305Z,7.03
2022-09-03T22:37:48.775Z,7.70
2022-09-03T22:40:22.092Z,6.90
2022-09-03T22:43:00.027Z,6.13
2022-09-03T22:45:44.617Z,6.38
2022-09-03T22:48:17.822Z,6.05
2022-09-03T22:50:52.204Z,5.93
2022-09-03T22:53:26.556Z,6.13
2022-09-03T22:56:00.669Z,5.68
2022-09-03T22:58:32.176Z,5.70
2022-09-03T23:01:07.108Z,8.00
2022-09-03T23:03:42.222Z,6.32
2022-09-03T23:06:16.758Z,6.13
2022-09-03T23:08:49.880Z,7.07
2022-09-03T23:11:25.393Z,5.72
2022-09-03T23:14:00.572Z,5.75
2022-09-03T23:16:37.887Z,5.82
2022-09-03T23:21:50.099Z,5.65
2022-09-03T23:24:21.130Z,5.68
2022-09-03T23:26:53.689Z,6.20
2022-09-03T23:29:27.957Z,5.32
2022-09-03T23:32:05.342Z,5.30
2022-09-03T23:34:35.527Z,5.40
2022-09-03T23:37:35.327Z,10.65
2022-09-03T23:40:26.404Z,6.32
2022-09-03T23:43:09.929Z,5.80
2022-09-03T23:45:46.271Z,5.07
2022-09-03T23:48:23.908Z,5.68
2022-09-03T23:51:00.298Z,5.88
2022-09-03T23:53:34.729Z,5.57
2022-09-03T23:56:11.001Z,5.30
2022-09-03T23:58:48.735Z,5.45
